createdAt,value
2019-01-24T00:01:23.402Z,34.43
2019-01-24T00:03:25.223Z,42.90
2019-01-24T00:05:27.047Z,43.50
2019-01-24T00:07:29.070Z,38.63
2019-01-24T00:09:30.800Z,34.55
2019-01-24T00:11:32.494Z,37.42
2019-01-24T00:13:34.566Z,33.40
2019-01-24T00:15:36.278Z,36.03
2019-01-24T00:17:38.005Z,38.40
2019-01-24T00:19:39.734Z,40.20
2019-01-24T00:21:41.455Z,35.35
2019-01-24T00:23:43.206Z,40.38
2019-01-24T00:25:45.399Z,41.08
2019-01-24T00:27:47.290Z,40.28
2019-01-24T00:29:49.254Z,40.40
2019-01-24T00:31:50.966Z,31.87
2019-01-24T00:33:52.788Z,34.92
2019-01-24T00:35:54.675Z,35.00
2019-01-24T00:37:56.400Z,38.20
2019-01-24T00:39:58.114Z,35.92
2019-01-24T00:42:00.011Z,38.75
2019-01-24T00:44:01.943Z,38.92
2019-01-24T00:46:03.766Z,29.48
2019-01-24T00:48:05.602Z,32.67
2019-01-24T00:50:07.840Z,29.27
2019-01-24T00:52:09.678Z,32.80
2019-01-24T00:54:11.526Z,29.02
2019-01-24T00:56:13.230Z,35.58
2019-01-24T00:58:15.049Z,29.65
2019-01-24T01:00:19.516Z,36.95
2019-01-24T01:02:21.414Z,36.75
2019-01-24T01:04:29.585Z,37.67
2019-01-24T01:06:26.851Z,30.75
2019-01-24T01:08:28.655Z,29.35
2019-01-24T01:10:30.498Z,34.35
2019-01-24T01:12:32.571Z,28.45
2019-01-24T01:14:34.408Z,29.45
2019-01-24T01:16:36.218Z,36.30
2019-01-24T01:18:37.979Z,26.97
2019-01-24T01:20:39.690Z,31.77
2019-01-24T01:22:41.508Z,31.25
2019-01-24T01:24:43.350Z,34.40
2019-01-24T01:26:45.151Z,24.43
2019-01-24T01:28:47.065Z,33.10
2019-01-24T01:30:48.822Z,25.70
2019-01-24T01:32:51.206Z,31.07
2019-01-24T01:34:53.300Z,32.55
2019-01-24T01:36:58.273Z,34.45
2019-01-24T01:38:59.597Z,25.20
2019-01-24T01:41:01.298Z,24.63
2019-01-24T01:43:03.245Z,23.10
2019-01-24T01:45:07.467Z,27.00
2019-01-24T01:47:09.179Z,28.07
2019-01-24T01:49:11.071Z,23.62
2019-01-24T01:51:12.789Z,25.35
2019-01-24T01:53:14.512Z,22.40
2019-01-24T01:55:16.458Z,23.22
2019-01-24T01:57:18.390Z,29.87
2019-01-24T01:59:20.098Z,24.70
2019-01-24T02:01:21.833Z,21.87
2019-01-24T02:03:23.523Z,21.40
2019-01-24T02:05:25.352Z,21.77
2019-01-24T02:07:27.069Z,25.48
2019-01-24T02:09:28.790Z,27.00
2019-01-24T02:11:30.529Z,21.17
2019-01-24T02:13:32.262Z,24.20
2019-01-24T02:15:34.069Z,22.30
2019-01-24T02:17:35.890Z,16.40
2019-01-24T02:19:38.071Z,28.38
2019-01-24T02:21:39.790Z,29.07
2019-01-24T02:23:41.614Z,20.15
2019-01-24T02:25:43.435Z,27.10
2019-01-24T02:27:45.392Z,27.65
2019-01-24T02:29:47.210Z,22.13
2019-01-24T02:31:49.027Z,23.02
2019-01-24T02:33:50.766Z,26.80
2019-01-24T02:35:52.592Z,27.55
2019-01-24T02:37:54.430Z,22.55
2019-01-24T02:39:56.166Z,21.77
2019-01-24T02:41:57.862Z,26.97
2019-01-24T02:43:59.587Z,21.82
2019-01-24T02:46:01.543Z,24.00
2019-01-24T02:48:03.660Z,25.10
2019-01-24T02:50:07.855Z,26.68
2019-01-24T02:52:09.740Z,27.27
2019-01-24T02:54:11.460Z,25.97
2019-01-24T02:56:13.172Z,24.87
2019-01-24T02:58:14.912Z,22.00
2019-01-24T03:00:18.377Z,24.72
2019-01-24T03:02:20.195Z,23.25
2019-01-24T03:04:22.034Z,21.02
2019-01-24T03:06:23.746Z,21.07
2019-01-24T03:08:25.483Z,20.55
2019-01-24T03:10:27.218Z,21.25
2019-01-24T03:12:28.971Z,21.50
2019-01-24T03:14:30.679Z,21.48
2019-01-24T03:16:32.541Z,27.58
2019-01-24T03:18:34.234Z,28.67
2019-01-24T03:20:36.062Z,28.52
2019-01-24T03:22:37.999Z,26.23
2019-01-24T03:24:39.700Z,28.25
2019-01-24T03:26:41.430Z,22.58
2019-01-24T03:28:43.127Z,21.02
2019-01-24T03:30:44.844Z,22.20
2019-01-24T03:32:46.641Z,19.20
2019-01-24T03:34:48.392Z,25.62
2019-01-24T03:36:50.104Z,26.40
2019-01-24T03:38:51.813Z,28.57
2019-01-24T03:40:53.539Z,29.12
2019-01-24T03:42:55.238Z,28.00
2019-01-24T03:44:56.978Z,24.07
2019-01-24T03:46:58.706Z,22.37
2019-01-24T03:49:00.411Z,25.02
2019-01-24T03:51:02.350Z,24.92
2019-01-24T03:53:04.314Z,29.65
2019-01-24T03:55:06.589Z,28.25
2019-01-24T03:57:08.538Z,21.20
2019-01-24T03:59:10.363Z,23.83
2019-01-24T04:01:12.167Z,22.50
2019-01-24T04:03:14.401Z,26.27
2019-01-24T04:05:16.521Z,22.52
2019-01-24T04:07:18.471Z,22.98
2019-01-24T04:09:21.141Z,25.72
2019-01-24T04:11:22.934Z,28.83
2019-01-24T04:13:24.663Z,25.72
2019-01-24T04:15:26.526Z,25.35
2019-01-24T04:17:28.248Z,25.17
2019-01-24T04:19:29.954Z,25.60
2019-01-24T04:21:32.252Z,26.02
2019-01-24T04:23:33.963Z,18.75
2019-01-24T04:25:35.670Z,23.95
2019-01-24T04:27:37.532Z,25.35
2019-01-24T04:29:39.252Z,20.72
2019-01-24T04:31:40.976Z,23.60
2019-01-24T04:33:42.722Z,19.92
2019-01-24T04:35:44.437Z,18.00
2019-01-24T04:37:46.798Z,18.75
2019-01-24T04:39:48.546Z,19.12
2019-01-24T04:41:50.252Z,19.52
2019-01-24T04:43:52.002Z,17.65
2019-01-24T04:45:53.711Z,19.07
2019-01-24T04:47:55.658Z,17.62
2019-01-24T04:49:57.370Z,22.27
2019-01-24T04:51:59.114Z,18.62
2019-01-24T04:54:00.894Z,19.07
2019-01-24T04:56:03.331Z,22.67
2019-01-24T04:58:05.298Z,17.30
2019-01-24T05:00:11.549Z,21.68
2019-01-24T05:02:13.294Z,18.67
2019-01-24T05:04:15.095Z,19.48
2019-01-24T05:06:16.815Z,18.52
2019-01-24T05:08:18.517Z,20.23
2019-01-24T05:10:20.430Z,18.40
2019-01-24T05:12:22.162Z,20.97
2019-01-24T05:14:23.875Z,18.25
2019-01-24T05:16:25.719Z,21.12
2019-01-24T05:18:27.445Z,17.35
2019-01-24T05:20:29.166Z,20.65
2019-01-24T05:22:30.906Z,20.68
2019-01-24T05:24:32.618Z,19.73
2019-01-24T05:26:34.326Z,21.70
2019-01-24T05:28:36.082Z,18.85
2019-01-24T05:30:37.876Z,19.60
2019-01-24T05:32:39.585Z,19.55
2019-01-24T05:34:41.329Z,22.27
2019-01-24T05:36:46.357Z,21.68
2019-01-24T05:38:48.074Z,20.52
2019-01-24T05:40:50.169Z,20.52
2019-01-24T05:42:51.976Z,21.20
2019-01-24T05:44:53.691Z,22.67
2019-01-24T05:46:55.435Z,21.70
2019-01-24T05:48:57.146Z,20.97
2019-01-24T05:50:58.861Z,21.33
2019-01-24T05:53:20.300Z,22.05
2019-01-24T05:55:22.154Z,20.02
2019-01-24T05:57:23.894Z,20.68
2019-01-24T05:59:25.711Z,20.88
2019-01-24T06:01:27.939Z,20.40
2019-01-24T06:03:29.837Z,22.73
2019-01-24T06:05:31.802Z,19.95
2019-01-24T06:07:33.555Z,20.72
2019-01-24T06:09:35.298Z,20.00
2019-01-24T06:11:37.343Z,21.20
2019-01-24T06:13:39.072Z,22.17
2019-01-24T06:15:40.926Z,20.12
2019-01-24T06:17:43.010Z,20.52
2019-01-24T06:19:44.866Z,20.45
2019-01-24T06:21:46.894Z,19.50
2019-01-24T06:23:48.802Z,22.30
2019-01-24T06:25:50.634Z,21.27
2019-01-24T06:27:52.363Z,21.20
2019-01-24T06:29:54.141Z,21.52
2019-01-24T06:31:55.978Z,22.15
2019-01-24T06:33:57.706Z,20.05
2019-01-24T06:35:59.464Z,22.15
2019-01-24T06:38:01.251Z,22.90
2019-01-24T06:40:04.558Z,20.27
2019-01-24T06:42:06.525Z,19.02
2019-01-24T06:44:08.258Z,22.10
2019-01-24T06:46:09.973Z,22.07
2019-01-24T06:48:11.711Z,21.65
2019-01-24T06:50:14.059Z,18.42
2019-01-24T06:52:15.810Z,22.00
2019-01-24T06:54:17.535Z,23.25
2019-01-24T06:56:19.286Z,20.72
2019-01-24T06:58:21.014Z,23.47
2019-01-24T07:00:22.952Z,21.40
2019-01-24T07:02:24.698Z,20.45
2019-01-24T07:04:26.432Z,22.75
2019-01-24T07:06:28.266Z,20.90
2019-01-24T07:08:30.038Z,20.62
2019-01-24T07:10:31.890Z,21.30
2019-01-24T07:12:33.610Z,21.80
2019-01-24T07:14:35.455Z,22.98
2019-01-24T07:16:37.182Z,18.70
2019-01-24T07:18:39.042Z,22.37
2019-01-24T07:20:40.909Z,21.90
2019-01-24T07:22:42.744Z,21.80
2019-01-24T07:24:44.740Z,20.12
2019-01-24T07:26:46.491Z,21.90
2019-01-24T07:28:48.218Z,20.97
2019-01-24T07:30:49.946Z,21.33
2019-01-24T07:32:51.778Z,19.82
2019-01-24T07:34:53.535Z,21.42
2019-01-24T07:36:55.263Z,21.27
2019-01-24T07:38:56.994Z,22.73
2019-01-24T07:40:58.739Z,22.82
2019-01-24T07:43:00.459Z,25.37
2019-01-24T07:45:03.690Z,21.70
2019-01-24T07:47:05.414Z,25.52
2019-01-24T07:49:07.189Z,23.85
2019-01-24T07:51:08.931Z,24.67
2019-01-24T07:53:10.802Z,21.87
2019-01-24T07:55:12.839Z,26.52
2019-01-24T07:57:14.658Z,25.45
2019-01-24T07:59:16.490Z,25.32
2019-01-24T08:01:18.311Z,23.40
2019-01-24T08:03:20.035Z,26.65
2019-01-24T08:05:22.434Z,23.87
2019-01-24T08:07:24.142Z,23.12
2019-01-24T08:09:25.888Z,24.45
2019-01-24T08:11:27.641Z,25.12
2019-01-24T08:13:29.479Z,24.37
2019-01-24T08:15:31.461Z,24.30
2019-01-24T08:17:33.277Z,23.75
2019-01-24T08:19:34.999Z,22.40
2019-01-24T08:21:36.920Z,21.93
2019-01-24T08:23:38.647Z,21.50
2019-01-24T08:25:40.481Z,21.50
2019-01-24T08:27:42.302Z,22.13
2019-01-24T08:29:44.039Z,24.07
2019-01-24T08:31:45.735Z,20.72
2019-01-24T08:33:47.593Z,20.68
2019-01-24T08:35:49.754Z,22.13
2019-01-24T08:37:51.776Z,21.57
2019-01-24T08:39:53.502Z,22.52
2019-01-24T08:41:55.240Z,24.23
2019-01-24T08:43:56.962Z,24.77
2019-01-24T08:45:58.703Z,20.50
2019-01-24T08:48:00.441Z,21.45
2019-01-24T08:50:03.423Z,22.25
2019-01-24T08:52:05.263Z,23.75
2019-01-24T08:54:06.986Z,20.35
2019-01-24T08:56:08.715Z,20.27
2019-01-24T08:58:10.854Z,20.90
2019-01-24T09:00:14.990Z,22.65
2019-01-24T09:02:16.718Z,20.43
2019-01-24T09:04:18.459Z,20.65
2019-01-24T09:06:22.673Z,20.72
2019-01-24T09:08:23.922Z,22.48
2019-01-24T09:10:28.618Z,19.85
2019-01-24T09:12:30.668Z,20.77
2019-01-24T09:14:32.561Z,20.48
2019-01-24T09:16:34.295Z,21.23
2019-01-24T09:18:36.017Z,22.65
2019-01-24T09:20:37.985Z,22.87
2019-01-24T09:22:39.987Z,22.17
2019-01-24T09:24:41.742Z,18.75
2019-01-24T09:26:43.607Z,22.58
2019-01-24T09:28:45.355Z,22.85
2019-01-24T09:30:47.088Z,21.20
2019-01-24T09:32:48.926Z,21.95
2019-01-24T09:34:50.740Z,22.52
2019-01-24T09:36:52.660Z,22.20
2019-01-24T09:38:54.382Z,21.77
2019-01-24T09:40:56.103Z,21.35
2019-01-24T09:42:58.136Z,21.82
2019-01-24T09:44:59.846Z,20.62
2019-01-24T09:47:01.566Z,22.48
2019-01-24T09:49:03.533Z,21.57
2019-01-24T09:51:05.330Z,22.73
2019-01-24T09:53:07.162Z,22.77
2019-01-24T09:55:09.246Z,22.98
2019-01-24T09:57:10.960Z,19.85
2019-01-24T09:59:12.792Z,19.87
2019-01-24T10:01:14.725Z,20.92
2019-01-24T10:03:16.434Z,21.05
2019-01-24T10:05:18.686Z,22.45
2019-01-24T10:07:20.433Z,22.50
2019-01-24T10:09:22.154Z,22.30
2019-01-24T10:11:23.874Z,24.60
2019-01-24T10:13:25.750Z,22.17
2019-01-24T10:15:27.696Z,24.00
2019-01-24T10:17:29.703Z,22.65
2019-01-24T10:19:31.418Z,24.92
2019-01-24T10:21:33.258Z,23.83
2019-01-24T10:23:34.974Z,23.18
2019-01-24T10:25:37.948Z,21.95
2019-01-24T10:27:39.664Z,22.42
2019-01-24T10:29:41.384Z,23.52
2019-01-24T10:31:43.154Z,21.02
2019-01-24T10:33:45.075Z,21.85
2019-01-24T10:35:46.894Z,25.08
2019-01-24T10:37:49.041Z,23.05
2019-01-24T10:39:50.960Z,25.20
2019-01-24T10:41:52.827Z,24.77
2019-01-24T10:43:54.657Z,24.45
2019-01-24T10:45:56.477Z,25.08
2019-01-24T10:47:58.398Z,23.15
2019-01-24T10:50:00.418Z,24.90
2019-01-24T10:52:02.303Z,23.18
2019-01-24T10:54:04.026Z,22.25
2019-01-24T10:56:05.886Z,24.67
2019-01-24T10:58:07.604Z,23.55
2019-01-24T11:00:13.034Z,25.40
2019-01-24T11:02:14.952Z,28.35
2019-01-24T11:04:16.671Z,22.37
2019-01-24T11:06:18.495Z,23.55
2019-01-24T11:08:20.342Z,22.00
2019-01-24T11:10:22.279Z,24.12
2019-01-24T11:12:24.085Z,21.97
2019-01-24T11:14:25.931Z,22.98
2019-01-24T11:16:27.754Z,24.30
2019-01-24T11:18:29.461Z,25.02
2019-01-24T11:20:31.212Z,24.18
2019-01-24T11:22:33.195Z,24.32
2019-01-24T11:24:34.921Z,24.70
2019-01-24T11:26:37.035Z,24.35
2019-01-24T11:28:38.894Z,22.67
2019-01-24T11:30:40.868Z,25.68
2019-01-24T11:32:42.892Z,24.25
2019-01-24T11:34:44.724Z,25.52
2019-01-24T11:36:46.590Z,26.70
2019-01-24T11:38:48.669Z,23.55
2019-01-24T11:40:50.482Z,22.30
2019-01-24T11:42:52.693Z,25.50
2019-01-24T11:44:54.413Z,22.60
2019-01-24T11:46:56.439Z,27.52
2019-01-24T11:48:58.178Z,23.65
2019-01-24T11:50:59.919Z,21.33
2019-01-24T11:53:01.683Z,22.42
2019-01-24T11:55:04.222Z,26.10
2019-01-24T11:57:05.963Z,25.23
2019-01-24T11:59:07.735Z,22.22
2019-01-24T12:01:09.483Z,24.30
2019-01-24T12:03:11.899Z,25.82
2019-01-24T12:05:14.251Z,23.95
2019-01-24T12:07:15.970Z,23.47
2019-01-24T12:09:18.054Z,24.12
2019-01-24T12:11:19.767Z,23.42
2019-01-24T12:13:21.592Z,24.55
2019-01-24T12:15:24.460Z,23.40
2019-01-24T12:17:26.178Z,24.37
2019-01-24T12:19:27.891Z,22.82
2019-01-24T12:21:29.724Z,23.62
2019-01-24T12:23:32.371Z,24.80
2019-01-24T12:25:34.200Z,24.85
2019-01-24T12:27:36.043Z,22.02
2019-01-24T12:29:37.787Z,24.30
2019-01-24T12:31:39.759Z,22.27
2019-01-24T12:33:41.544Z,22.65
2019-01-24T12:35:43.444Z,22.90
2019-01-24T12:37:45.282Z,23.55
2019-01-24T12:39:47.003Z,23.45
2019-01-24T12:41:48.746Z,22.30
2019-01-24T12:43:50.470Z,24.30
2019-01-24T12:45:52.435Z,23.40
2019-01-24T12:47:54.389Z,21.95
2019-01-24T12:49:56.199Z,22.98
2019-01-24T12:51:57.911Z,24.23
2019-01-24T12:54:00.426Z,23.00
2019-01-24T12:56:02.614Z,25.88
2019-01-24T12:58:04.774Z,23.73
2019-01-24T13:00:10.738Z,24.50
2019-01-24T13:02:12.442Z,23.00
2019-01-24T13:04:14.183Z,23.45
2019-01-24T13:06:15.919Z,24.63
2019-01-24T13:08:17.778Z,22.22
2019-01-24T13:10:21.399Z,23.35
2019-01-24T13:12:23.121Z,24.85
2019-01-24T13:14:24.838Z,24.35
2019-01-24T13:16:26.546Z,23.25
2019-01-24T13:18:28.270Z,25.17
2019-01-24T13:20:30.178Z,23.02
2019-01-24T13:22:32.008Z,22.82
2019-01-24T13:24:33.991Z,22.20
2019-01-24T13:26:35.832Z,24.92
2019-01-24T13:28:37.539Z,25.08
2019-01-24T13:30:39.360Z,22.80
2019-01-24T13:32:41.225Z,22.00
2019-01-24T13:34:42.965Z,23.73
2019-01-24T13:36:44.675Z,22.48
2019-01-24T13:38:46.602Z,25.85
2019-01-24T13:40:48.532Z,24.37
2019-01-24T13:42:50.326Z,24.60
2019-01-24T13:44:52.055Z,23.38
2019-01-24T13:46:53.902Z,24.87
2019-01-24T13:48:55.741Z,24.63
2019-01-24T13:50:57.482Z,28.05
2019-01-24T13:52:59.443Z,26.02
2019-01-24T13:55:01.457Z,25.95
2019-01-24T13:57:03.489Z,26.73
2019-01-24T13:59:05.323Z,28.32
2019-01-24T14:01:07.249Z,26.37
2019-01-24T14:03:20.564Z,26.62
2019-01-24T14:05:22.290Z,25.20
2019-01-24T14:07:23.987Z,27.25
2019-01-24T14:09:25.726Z,25.68
2019-01-24T14:11:27.574Z,25.95
2019-01-24T14:13:29.291Z,27.37
2019-01-24T14:15:31.016Z,28.12
2019-01-24T14:17:32.755Z,26.57
2019-01-24T14:19:34.501Z,25.37
2019-01-24T14:21:36.325Z,25.27
2019-01-24T14:23:38.214Z,23.18
2019-01-24T14:25:40.118Z,25.37
2019-01-24T14:27:42.094Z,28.70
2019-01-24T14:29:43.974Z,29.25
2019-01-24T14:31:45.846Z,28.00
2019-01-24T14:33:47.569Z,26.93
2019-01-24T14:35:49.478Z,27.22
2019-01-24T14:37:51.295Z,24.57
2019-01-24T14:39:53.158Z,26.05
2019-01-24T14:41:54.895Z,24.52
2019-01-24T14:43:56.626Z,25.70
2019-01-24T14:45:58.330Z,24.85
2019-01-24T14:48:00.282Z,27.75
2019-01-24T14:50:03.135Z,24.23
2019-01-24T14:52:05.198Z,21.90
2019-01-24T14:54:07.167Z,23.22
2019-01-24T14:56:09.142Z,24.70
2019-01-24T14:58:11.206Z,19.95
2019-01-24T15:00:30.663Z,20.75
2019-01-24T15:02:32.386Z,21.82
2019-01-24T15:04:34.230Z,20.20
2019-01-24T15:06:36.059Z,21.35
2019-01-24T15:08:37.880Z,19.77
2019-01-24T15:10:39.800Z,23.38
2019-01-24T15:12:41.638Z,23.00
2019-01-24T15:14:43.382Z,20.43
2019-01-24T15:16:45.103Z,21.42
2019-01-24T15:18:47.131Z,21.42
2019-01-24T15:20:48.832Z,22.93
2019-01-24T15:22:50.650Z,22.07
2019-01-24T15:24:52.401Z,22.77
2019-01-24T15:26:54.114Z,24.10
2019-01-24T15:28:55.934Z,22.90
2019-01-24T15:30:57.908Z,21.48
2019-01-24T15:32:59.731Z,21.05
2019-01-24T15:35:01.562Z,21.62
2019-01-24T15:37:03.510Z,24.50
2019-01-24T15:39:06.814Z,21.75
2019-01-24T15:41:08.652Z,21.55
2019-01-24T15:43:10.660Z,21.23
2019-01-24T15:45:14.450Z,20.15
2019-01-24T15:47:16.263Z,20.65
2019-01-24T15:49:18.082Z,19.60
2019-01-24T15:51:19.858Z,23.07
2019-01-24T15:53:21.754Z,24.87
2019-01-24T15:55:23.598Z,23.12
2019-01-24T15:57:25.332Z,26.07
2019-01-24T15:59:27.050Z,23.20
2019-01-24T16:01:28.790Z,22.17
2019-01-24T16:03:30.619Z,24.77
2019-01-24T16:05:32.628Z,21.95
2019-01-24T16:07:34.362Z,22.20
2019-01-24T16:09:36.180Z,24.75
2019-01-24T16:11:37.962Z,21.25
2019-01-24T16:13:39.647Z,23.60
2019-01-24T16:15:41.412Z,22.62
2019-01-24T16:17:43.249Z,21.37
2019-01-24T16:19:45.074Z,22.30
2019-01-24T16:21:46.815Z,23.75
2019-01-24T16:23:48.528Z,21.97
2019-01-24T16:25:50.248Z,24.87
2019-01-24T16:27:51.987Z,22.02
2019-01-24T16:29:53.710Z,26.35
2019-01-24T16:31:55.539Z,29.98
2019-01-24T16:33:57.487Z,25.77
2019-01-24T16:35:59.370Z,26.77
2019-01-24T16:38:01.546Z,24.57
2019-01-24T16:40:04.274Z,25.43
2019-01-24T16:42:06.038Z,22.82
2019-01-24T16:44:07.854Z,24.57
2019-01-24T16:46:09.659Z,22.17
2019-01-24T16:48:11.610Z,23.42
2019-01-24T16:50:14.430Z,19.15
2019-01-24T16:52:16.141Z,23.62
2019-01-24T16:54:17.861Z,22.90
2019-01-24T16:56:19.797Z,23.77
2019-01-24T16:58:21.615Z,22.77
2019-01-24T17:00:26.180Z,26.33
2019-01-24T17:02:27.912Z,23.67
2019-01-24T17:04:29.753Z,23.75
2019-01-24T17:06:31.790Z,19.45
2019-01-24T17:08:33.551Z,21.35
2019-01-24T17:10:35.435Z,24.47
2019-01-24T17:12:37.213Z,21.27
2019-01-24T17:14:38.922Z,21.12
2019-01-24T17:16:41.140Z,21.73
2019-01-24T17:18:42.869Z,22.95
2019-01-24T17:20:44.707Z,22.50
2019-01-24T17:22:46.732Z,22.60
2019-01-24T17:24:48.454Z,23.00
2019-01-24T17:26:50.181Z,23.15
2019-01-24T17:28:54.968Z,21.23
2019-01-24T17:30:57.106Z,21.05
2019-01-24T17:32:59.219Z,20.72
2019-01-24T17:35:00.980Z,21.25
2019-01-24T17:37:02.934Z,22.42
2019-01-24T17:39:08.254Z,22.25
2019-01-24T17:41:10.085Z,20.70
2019-01-24T17:43:11.831Z,21.65
2019-01-24T17:45:14.514Z,22.05
2019-01-24T17:47:16.236Z,22.40
2019-01-24T17:49:18.193Z,20.97
2019-01-24T17:51:20.026Z,19.82
2019-01-24T17:53:21.835Z,20.08
2019-01-24T17:55:29.158Z,21.85
2019-01-24T17:57:30.898Z,21.80
2019-01-24T17:59:32.610Z,23.40
2019-01-24T18:01:34.439Z,23.30
2019-01-24T18:03:36.254Z,25.50
2019-01-24T18:05:38.073Z,25.43
2019-01-24T18:07:40.007Z,23.00
2019-01-24T18:09:41.783Z,24.15
2019-01-24T18:11:44.595Z,22.95
2019-01-24T18:13:46.930Z,21.52
2019-01-24T18:15:48.752Z,24.60
2019-01-24T18:17:50.700Z,24.23
2019-01-24T18:19:52.514Z,23.10
2019-01-24T18:21:54.231Z,24.32
2019-01-24T18:23:55.984Z,20.97
2019-01-24T18:25:58.926Z,23.38
2019-01-24T18:28:02.252Z,22.15
2019-01-24T18:30:27.831Z,22.05
2019-01-24T18:32:28.933Z,21.17
2019-01-24T18:34:30.822Z,21.25
2019-01-24T18:36:32.684Z,22.48
2019-01-24T18:38:38.449Z,25.00
2019-01-24T18:40:38.389Z,24.45
2019-01-24T18:42:40.551Z,23.45
2019-01-24T18:44:42.326Z,23.02
2019-01-24T18:46:51.083Z,23.05
2019-01-24T18:48:53.245Z,22.52
2019-01-24T18:50:55.175Z,21.20
2019-01-24T18:52:57.156Z,20.70
2019-01-24T18:54:59.146Z,24.65
2019-01-24T18:57:01.283Z,22.87
2019-01-24T18:59:03.644Z,23.62
2019-01-24T19:01:05.462Z,23.25
2019-01-24T19:03:08.388Z,24.12
2019-01-24T19:05:11.053Z,22.98
2019-01-24T19:07:12.755Z,23.60
2019-01-24T19:09:15.780Z,21.60
2019-01-24T19:11:17.526Z,20.52
2019-01-24T19:13:19.306Z,20.10
2019-01-24T19:15:21.333Z,21.62
2019-01-24T19:17:23.168Z,20.17
2019-01-24T19:19:36.710Z,19.37
2019-01-24T19:21:38.608Z,20.65
2019-01-24T19:23:40.349Z,22.32
2019-01-24T19:25:42.751Z,24.50
2019-01-24T19:27:44.861Z,26.62
2019-01-24T19:29:46.620Z,23.80
2019-01-24T19:31:48.982Z,22.95
2019-01-24T19:33:50.761Z,19.50
2019-01-24T19:36:00.080Z,20.05
2019-01-24T19:37:57.380Z,22.32
2019-01-24T19:39:59.147Z,21.15
2019-01-24T19:42:00.931Z,21.00
2019-01-24T19:44:03.458Z,21.97
2019-01-24T19:46:05.586Z,20.88
2019-01-24T19:48:07.571Z,18.60
2019-01-24T19:50:12.181Z,21.52
2019-01-24T19:52:14.082Z,21.93
2019-01-24T19:54:15.807Z,22.40
2019-01-24T19:56:17.829Z,23.15
2019-01-24T19:58:31.920Z,23.12
2019-01-24T20:00:33.871Z,22.65
2019-01-24T20:02:35.744Z,21.12
2019-01-24T20:04:37.736Z,22.05
2019-01-24T20:06:39.630Z,19.85
2019-01-24T20:08:41.577Z,22.17
2019-01-24T20:10:43.469Z,23.30
2019-01-24T20:12:45.467Z,23.35
2019-01-24T20:14:47.355Z,21.60
2019-01-24T20:16:49.347Z,21.55
2019-01-24T20:18:52.186Z,20.35
2019-01-24T20:20:54.038Z,19.37
2019-01-24T20:22:56.391Z,22.42
2019-01-24T20:24:58.283Z,21.40
2019-01-24T20:27:00.105Z,23.38
2019-01-24T20:29:02.038Z,19.25
2019-01-24T20:31:03.784Z,21.75
2019-01-24T20:33:05.642Z,22.37
2019-01-24T20:35:11.448Z,23.12
2019-01-24T20:37:13.471Z,22.62
2019-01-24T20:39:15.208Z,20.95
2019-01-24T20:41:17.183Z,19.70
2019-01-24T20:43:19.386Z,22.42
2019-01-24T20:45:21.187Z,22.77
2019-01-24T20:47:24.470Z,22.62
2019-01-24T20:49:26.733Z,19.10
2019-01-24T20:51:28.739Z,19.27
2019-01-24T20:53:30.539Z,21.40
2019-01-24T20:55:32.542Z,20.85
2019-01-24T20:57:34.890Z,21.25
2019-01-24T20:59:36.943Z,22.67
2019-01-24T21:01:38.874Z,22.05
2019-01-24T21:03:41.867Z,22.60
2019-01-24T21:05:43.725Z,18.80
2019-01-24T21:07:46.102Z,22.52
2019-01-24T21:09:48.038Z,22.07
2019-01-24T21:11:49.799Z,21.15
2019-01-24T21:13:56.204Z,21.97
2019-01-24T21:15:58.039Z,16.93
2019-01-24T21:17:59.755Z,20.52
2019-01-24T21:20:07.472Z,18.07
2019-01-24T21:22:09.628Z,22.17
2019-01-24T21:24:11.544Z,21.95
2019-01-24T21:26:13.391Z,21.20
2019-01-24T21:28:15.161Z,19.82
2019-01-24T21:30:19.536Z,19.25
2019-01-24T21:32:21.290Z,18.87
2019-01-24T21:34:23.061Z,19.17
2019-01-24T21:36:24.794Z,18.12
2019-01-24T21:38:26.975Z,19.07
2019-01-24T21:40:32.055Z,17.80
2019-01-24T21:42:33.890Z,19.52
2019-01-24T21:44:35.619Z,18.50
2019-01-24T21:46:37.346Z,19.65
2019-01-24T21:48:39.055Z,18.80
2019-01-24T21:50:41.566Z,21.87
2019-01-24T21:52:43.415Z,21.05
2019-01-24T21:54:45.256Z,20.77
2019-01-24T21:56:47.259Z,19.30
2019-01-24T21:58:48.998Z,18.12
2019-01-24T22:00:51.011Z,21.42
2019-01-24T22:02:52.978Z,19.35
2019-01-24T22:04:54.960Z,18.85
2019-01-24T22:06:57.014Z,17.82
2019-01-24T22:08:59.098Z,17.98
2019-01-24T22:11:00.967Z,19.25
2019-01-24T22:13:03.140Z,19.35
2019-01-24T22:15:08.239Z,20.35
2019-01-24T22:17:09.975Z,18.40
2019-01-24T22:19:12.187Z,20.37
2019-01-24T22:21:14.180Z,17.32
2019-01-24T22:23:15.898Z,19.85
2019-01-24T22:25:20.481Z,17.75
2019-01-24T22:27:22.363Z,18.67
2019-01-24T22:29:24.117Z,18.45
2019-01-24T22:31:26.157Z,18.27
2019-01-24T22:33:28.312Z,19.25
2019-01-24T22:35:30.245Z,20.25
2019-01-24T22:37:32.101Z,19.42
2019-01-24T22:39:36.680Z,20.62
2019-01-24T22:41:37.673Z,19.85
2019-01-24T22:43:39.530Z,19.40
2019-01-24T22:45:41.652Z,17.62
2019-01-24T22:47:43.451Z,20.62
2019-01-24T22:49:46.869Z,20.25
2019-01-24T22:51:48.594Z,20.70
2019-01-24T22:53:50.406Z,18.30
2019-01-24T22:55:53.250Z,20.10
2019-01-24T22:57:55.150Z,21.55
2019-01-24T23:00:17.633Z,20.25
2019-01-24T23:02:24.555Z,20.45
2019-01-24T23:04:26.462Z,20.97
2019-01-24T23:06:28.502Z,20.40
2019-01-24T23:08:30.240Z,19.07
2019-01-24T23:10:32.060Z,20.10
2019-01-24T23:12:33.813Z,22.00
2019-01-24T23:14:35.527Z,19.40
2019-01-24T23:16:37.363Z,20.62
2019-01-24T23:18:39.186Z,19.85
2019-01-24T23:20:41.229Z,20.23
2019-01-24T23:22:43.781Z,19.95
2019-01-24T23:24:45.620Z,18.98
2019-01-24T23:26:47.358Z,20.12
2019-01-24T23:28:49.085Z,19.57
2019-01-24T23:30:50.907Z,19.73
2019-01-24T23:32:52.790Z,19.80
2019-01-24T23:34:54.618Z,19.05
2019-01-24T23:36:56.350Z,19.77
2019-01-24T23:38:58.062Z,19.98
2019-01-24T23:41:00.123Z,19.82
2019-01-24T23:43:02.440Z,21.73
2019-01-24T23:45:04.819Z,20.90
2019-01-24T23:47:07.028Z,19.30
2019-01-24T23:49:08.742Z,21.07
2019-01-24T23:51:10.683Z,21.27
2019-01-24T23:53:12.674Z,20.77
2019-01-24T23:55:14.863Z,20.20
2019-01-24T23:57:23.739Z,20.95
2019-01-24T23:59:20.363Z,21.45
